Hattiesburg Bobby L Chain Municipal Airport
KHBG : now visible

Airfield :











YOU CAN JOIN US ON...

 
LOGIN :

Register | Disclaimer

   EN    FR    IT 

 









Legend :    VFR   Marginal VFR   IFR   Intensive IFR   Very Intensive IFR
Visi :
Ceiling :
>= 8 km
>= 3000ft
5 to 8 km
1000 to 3000 ft
1500m to 5 km
500 to 1000 ft
800 to 1500m
200 to 500 ft
< 800m
< 200 ft
Symbols :   Thunderstorms  Fog  Heavy snow  Heavy precipitations  Wind > 20 kt






- Airport Elevation : 151 ft


KHBG - Hattiesburg Bobby L Chain Municipal

CURRENT METAR :
  • 290353Z AUTO 27005KT 10SM CLR 28/19 A3006 RMK AO2 SLP175 T02780189 PWINO $

EXPIRED METARs :
  • 290253Z AUTO 00000KT 10SM SCT070 27/22 A3006 RMK AO2 SLP175 T02670217 53002 PWINO $
  • 290153Z AUTO 00000KT 10SM BKN070 27/22 A3004 RMK AO2 SLP170 T02720222 PWINO $
  • 290053Z AUTO 00000KT 10SM CLR 28/22 A3003 RMK AO2 SLP166 T02780217 PWINO $
  • 282353Z AUTO 24003KT 10SM CLR 31/20 A3005 RMK AO2 SLP173 T03110200 10350 20311 PWINO $

TAF KHBG
Valid from the 29 at 00:00 until the 30 at 00:00 UTC


282320Z 2900/2924 VRB03KT P6SM BKN120
PROB30 2921/2924 P6SM -SHRA SCT090
KZHU FIR / North America



MET'MAP, your aeronautical weather chart ! - Copyright ORBIFLY December 2007 - Disclaimer

ORBIFLY MET'MAP TEAM :

Programming & Development : Alexandra Zaïnal
Original concept : Baudouin d'Aumeries
Technical & hardware support : Manuel Goepfert
Assistance : Marc-Olivier Méhu




SOURCES & CREDITS :

   NOAA       Earth
Advisory